Accueil
METAR-TAF:

METAR-TAF

Aéroports :

Ontario Municipal Airport

Ontario, Oregon, États-Unis

latitude: 44-01-10N, longitude: 117-00-35W, altitude: 667 m

Observation

Le bulletin a été fait il y a 20 minutes, à 22:53 UTC
Vent 16 kt de nord-ouest avec des rafales jusqu'à 22 kt
Température 25°C
Humidité 36%
Pression 1012 hPa
Visibilité: 16.1 km
Nuages épars à une hauteur de 6000 ft

METAR: KONO 262253Z AUTO 31016G22KT 10SM SCT060 25/09 A2987 RMK AO2 LTG DSNT E SLP105 T02500094

Heure: 17:13 (23:13 UTC)


TAF: absent

Observations et prévisions météorologiques de plus de 4000 aéroports (messages METAR et TAF).

Les stations disponibles sont représentées par des disques jaunes et rouges sur la carte.

Passer la souris dessus pour voir le nom de la station.

Cliquer dessus pour voir les observations et prévisions météorologiques.

Pour changer de carte: cliquez sur les boutons verts avec une croix noire pour zoomer, sur le bouton vert avec un tiret pour effectuer un zoom arrière, ou sur les flèches vertes pour les cartes adjacentes.


METAR-TAF: